UUEE

Sheremetyevo International Airport

ICAO Code UUEE
IATA Code SVO
Name Sheremetyevo International Airport
Location Moscow, Moscow-Oblast, RU
Elevation 622 Feet / 189.6 Meters
Latitude 55.97259903
Longitude 37.41460037
METAR UUEE 260430Z 22005MPS CAVOK M01/M03 Q1021 R24C/290045 R24R/290051 NOSIG
Extra information Display Charts and CFS
Display NOTAMS
Runway Length Width Surface Elevation
06C 11647 ft 197 ft CON 620 ft
06L 10498 ft 197 ft paved 597 ft
06R 12139 ft 197 ft CON 617 ft
24C 11647 ft 197 ft CON 622 ft
24R 10498 ft 197 ft paved 587 ft
24L 12139 ft 197 ft CON 620 ft